< < Back
Terminal Aerodrome Forecast


Current Version              Previous Versions:   1  2  3  4  5  6  7  8  9  

Terminal Aerodrome Forecast

047
FTUS42 KMLB 261700
TAFMCO
TAF
KMCO 261721Z 2618/2718 31012G18KT P6SM SCT015 BKN035 OVC110
     FM262100 32010KT P6SM FEW015 SCT150
     FM270000 31007KT P6SM SKC=



Latest METAR

786
SAUS70 KWBC 270400 RRK
MTRMCO
METAR KMCO 270353Z 26003KT 10SM FEW250 11/09 A3021 RMK AO2 SLP230
T01110089


USA.gov is the U.S. government's official web portal to all federal, state and local government web resources and services.